sensor_id;sensor_type;location;lat;lon;timestamp;P1;durP1;ratioP1;P2;durP2;ratioP2
55915;SDS011;41826;53.246;-6.670;2022-11-22T00:02:14;2.83;;;1.88;;
55915;SDS011;41826;53.246;-6.670;2022-11-22T00:04:40;3.25;;;1.45;;
55915;SDS011;41826;53.246;-6.670;2022-11-22T00:07:05;4.43;;;2.17;;
55915;SDS011;41826;53.246;-6.670;2022-11-22T00:09:31;3.90;;;2.03;;
55915;SDS011;41826;53.246;-6.670;2022-11-22T00:11:57;4.60;;;1.90;;
55915;SDS011;41826;53.246;-6.670;2022-11-22T00:14:22;3.88;;;1.77;;
55915;SDS011;41826;53.246;-6.670;2022-11-22T00:16:47;4.13;;;1.88;;
55915;SDS011;41826;53.246;-6.670;2022-11-22T00:19:13;5.45;;;2.25;;
55915;SDS011;41826;53.246;-6.670;2022-11-22T00:21:38;3.38;;;1.85;;
55915;SDS011;41826;53.246;-6.670;2022-11-22T00:24:04;4.10;;;1.75;;
55915;SDS011;41826;53.246;-6.670;2022-11-22T00:26:29;2.10;;;1.40;;
55915;SDS011;41826;53.246;-6.670;2022-11-22T00:28:55;1.40;;;1.30;;
55915;SDS011;41826;53.246;-6.670;2022-11-22T00:31:20;2.92;;;2.10;;
55915;SDS011;41826;53.246;-6.670;2022-11-22T00:33:46;4.47;;;2.30;;
55915;SDS011;41826;53.246;-6.670;2022-11-22T00:36:11;4.35;;;2.08;;
55915;SDS011;41826;53.246;-6.670;2022-11-22T00:38:37;3.38;;;1.95;;
55915;SDS011;41826;53.246;-6.670;2022-11-22T00:41:02;6.50;;;2.15;;
55915;SDS011;41826;53.246;-6.670;2022-11-22T00:43:28;5.78;;;2.50;;
55915;SDS011;41826;53.246;-6.670;2022-11-22T00:45:53;6.28;;;2.17;;
55915;SDS011;41826;53.246;-6.670;2022-11-22T00:48:18;8.88;;;2.63;;
55915;SDS011;41826;53.246;-6.670;2022-11-22T00:50:47;3.03;;;2.28;;
55915;SDS011;41826;53.246;-6.670;2022-11-22T00:53:13;4.28;;;1.95;;
55915;SDS011;41826;53.246;-6.670;2022-11-22T00:55:39;8.07;;;1.92;;
55915;SDS011;41826;53.246;-6.670;2022-11-22T00:58:04;1.75;;;1.63;;
55915;SDS011;41826;53.246;-6.670;2022-11-22T01:00:30;4.97;;;2.58;;
55915;SDS011;41826;53.246;-6.670;2022-11-22T01:02:55;2.97;;;1.95;;
55915;SDS011;41826;53.246;-6.670;2022-11-22T01:05:20;7.28;;;2.25;;
55915;SDS011;41826;53.246;-6.670;2022-11-22T01:07:46;7.68;;;2.28;;
55915;SDS011;41826;53.246;-6.670;2022-11-22T01:10:11;6.97;;;2.53;;
55915;SDS011;41826;53.246;-6.670;2022-11-22T01:12:37;3.92;;;1.70;;
55915;SDS011;41826;53.246;-6.670;2022-11-22T01:15:03;7.95;;;2.58;;
55915;SDS011;41826;53.246;-6.670;2022-11-22T01:17:29;3.58;;;1.85;;
55915;SDS011;41826;53.246;-6.670;2022-11-22T01:19:55;3.97;;;1.95;;
55915;SDS011;41826;53.246;-6.670;2022-11-22T01:22:20;5.63;;;1.98;;
55915;SDS011;41826;53.246;-6.670;2022-11-22T01:24:45;2.55;;;2.17;;
55915;SDS011;41826;53.246;-6.670;2022-11-22T01:27:11;4.32;;;1.92;;
55915;SDS011;41826;53.246;-6.670;2022-11-22T01:29:36;3.15;;;1.65;;
55915;SDS011;41826;53.246;-6.670;2022-11-22T01:32:02;4.57;;;2.10;;
55915;SDS011;41826;53.246;-6.670;2022-11-22T01:34:27;7.43;;;2.20;;
55915;SDS011;41826;53.246;-6.670;2022-11-22T01:36:53;1.77;;;1.13;;
55915;SDS011;41826;53.246;-6.670;2022-11-22T01:39:18;2.63;;;2.08;;
55915;SDS011;41826;53.246;-6.670;2022-11-22T01:41:43;4.38;;;2.28;;
55915;SDS011;41826;53.246;-6.670;2022-11-22T01:46:43;8.55;;;2.38;;
55915;SDS011;41826;53.246;-6.670;2022-11-22T01:52:01;1.88;;;1.60;;
55915;SDS011;41826;53.246;-6.670;2022-11-22T01:54:30;5.53;;;1.90;;
55915;SDS011;41826;53.246;-6.670;2022-11-22T01:57:00;4.78;;;2.35;;
55915;SDS011;41826;53.246;-6.670;2022-11-22T01:59:32;6.05;;;3.25;;
55915;SDS011;41826;53.246;-6.670;2022-11-22T02:02:02;9.15;;;1.73;;
55915;SDS011;41826;53.246;-6.670;2022-11-22T02:04:28;4.70;;;1.63;;
55915;SDS011;41826;53.246;-6.670;2022-11-22T02:06:58;3.15;;;1.70;;
55915;SDS011;41826;53.246;-6.670;2022-11-22T02:09:29;7.18;;;1.70;;
55915;SDS011;41826;53.246;-6.670;2022-11-22T02:11:58;2.22;;;1.95;;
55915;SDS011;41826;53.246;-6.670;2022-11-22T02:14:25;1.73;;;1.05;;
55915;SDS011;41826;53.246;-6.670;2022-11-22T02:16:52;1.58;;;0.93;;
55915;SDS011;41826;53.246;-6.670;2022-11-22T02:19:38;3.45;;;1.30;;
55915;SDS011;41826;53.246;-6.670;2022-11-22T02:27:47;5.18;;;3.35;;
55915;SDS011;41826;53.246;-6.670;2022-11-22T02:30:13;13.82;;;5.00;;
55915;SDS011;41826;53.246;-6.670;2022-11-22T02:32:42;15.00;;;4.55;;
55915;SDS011;41826;53.246;-6.670;2022-11-22T02:40:28;11.70;;;3.65;;
55915;SDS011;41826;53.246;-6.670;2022-11-22T02:43:04;8.15;;;3.13;;
55915;SDS011;41826;53.246;-6.670;2022-11-22T02:45:31;10.00;;;2.83;;
55915;SDS011;41826;53.246;-6.670;2022-11-22T02:48:06;6.50;;;2.47;;
55915;SDS011;41826;53.246;-6.670;2022-11-22T02:50:33;5.45;;;2.35;;
55915;SDS011;41826;53.246;-6.670;2022-11-22T02:52:59;3.72;;;1.75;;
55915;SDS011;41826;53.246;-6.670;2022-11-22T02:55:25;2.85;;;1.38;;
55915;SDS011;41826;53.246;-6.670;2022-11-22T02:57:50;3.03;;;1.17;;
55915;SDS011;41826;53.246;-6.670;2022-11-22T03:00:16;4.07;;;2.08;;
55915;SDS011;41826;53.246;-6.670;2022-11-22T03:02:41;7.97;;;2.30;;
55915;SDS011;41826;53.246;-6.670;2022-11-22T03:05:07;9.13;;;2.97;;
55915;SDS011;41826;53.246;-6.670;2022-11-22T03:07:32;2.08;;;1.20;;
55915;SDS011;41826;53.246;-6.670;2022-11-22T03:09:57;0.93;;;0.90;;
55915;SDS011;41826;53.246;-6.670;2022-11-22T03:12:23;2.05;;;1.20;;
55915;SDS011;41826;53.246;-6.670;2022-11-22T03:14:48;0.98;;;0.80;;
55915;SDS011;41826;53.246;-6.670;2022-11-22T03:17:14;2.08;;;1.00;;
55915;SDS011;41826;53.246;-6.670;2022-11-22T03:19:40;2.75;;;0.90;;
55915;SDS011;41826;53.246;-6.670;2022-11-22T03:22:05;9.80;;;3.53;;
55915;SDS011;41826;53.246;-6.670;2022-11-22T03:24:31;9.15;;;3.15;;
55915;SDS011;41826;53.246;-6.670;2022-11-22T03:26:56;4.47;;;2.28;;
55915;SDS011;41826;53.246;-6.670;2022-11-22T03:29:22;6.50;;;2.03;;
55915;SDS011;41826;53.246;-6.670;2022-11-22T03:31:47;4.68;;;2.38;;
55915;SDS011;41826;53.246;-6.670;2022-11-22T03:34:12;3.42;;;2.40;;
55915;SDS011;41826;53.246;-6.670;2022-11-22T03:36:38;14.13;;;3.58;;
55915;SDS011;41826;53.246;-6.670;2022-11-22T03:39:04;7.03;;;3.30;;
55915;SDS011;41826;53.246;-6.670;2022-11-22T03:41:29;4.90;;;3.20;;
55915;SDS011;41826;53.246;-6.670;2022-11-22T03:43:55;9.70;;;4.45;;
55915;SDS011;41826;53.246;-6.670;2022-11-22T03:46:20;8.07;;;4.38;;
55915;SDS011;41826;53.246;-6.670;2022-11-22T03:48:45;6.00;;;3.03;;
55915;SDS011;41826;53.246;-6.670;2022-11-22T03:51:11;7.35;;;3.80;;
55915;SDS011;41826;53.246;-6.670;2022-11-22T03:53:37;8.48;;;3.85;;
55915;SDS011;41826;53.246;-6.670;2022-11-22T03:56:02;9.07;;;4.30;;
55915;SDS011;41826;53.246;-6.670;2022-11-22T03:58:29;7.68;;;4.07;;
55915;SDS011;41826;53.246;-6.670;2022-11-22T04:00:55;6.63;;;3.95;;
55915;SDS011;41826;53.246;-6.670;2022-11-22T04:03:21;10.30;;;4.13;;
55915;SDS011;41826;53.246;-6.670;2022-11-22T04:05:46;5.70;;;3.83;;
55915;SDS011;41826;53.246;-6.670;2022-11-22T04:08:12;10.73;;;4.80;;
55915;SDS011;41826;53.246;-6.670;2022-11-22T04:10:38;10.63;;;4.35;;
55915;SDS011;41826;53.246;-6.670;2022-11-22T04:13:03;13.60;;;4.55;;
55915;SDS011;41826;53.246;-6.670;2022-11-22T04:15:29;6.32;;;3.95;;
55915;SDS011;41826;53.246;-6.670;2022-11-22T04:17:54;13.45;;;4.28;;
55915;SDS011;41826;53.246;-6.670;2022-11-22T04:20:20;11.98;;;4.97;;
55915;SDS011;41826;53.246;-6.670;2022-11-22T04:23:10;9.93;;;5.13;;
55915;SDS011;41826;53.246;-6.670;2022-11-22T04:25:44;11.52;;;5.32;;
55915;SDS011;41826;53.246;-6.670;2022-11-22T04:28:11;18.50;;;7.05;;
55915;SDS011;41826;53.246;-6.670;2022-11-22T04:30:38;11.55;;;6.43;;
55915;SDS011;41826;53.246;-6.670;2022-11-22T04:33:25;12.93;;;6.97;;
55915;SDS011;41826;53.246;-6.670;2022-11-22T04:35:53;19.63;;;6.90;;
55915;SDS011;41826;53.246;-6.670;2022-11-22T04:38:19;14.63;;;6.95;;
55915;SDS011;41826;53.246;-6.670;2022-11-22T04:40:45;16.55;;;8.02;;
55915;SDS011;41826;53.246;-6.670;2022-11-22T04:43:14;15.98;;;7.07;;
55915;SDS011;41826;53.246;-6.670;2022-11-22T04:46:01;11.10;;;6.38;;
55915;SDS011;41826;53.246;-6.670;2022-11-22T04:48:44;6.50;;;4.45;;
55915;SDS011;41826;53.246;-6.670;2022-11-22T04:51:13;8.02;;;5.40;;
55915;SDS011;41826;53.246;-6.670;2022-11-22T04:53:57;9.65;;;5.80;;
55915;SDS011;41826;53.246;-6.670;2022-11-22T04:56:23;16.23;;;6.25;;
55915;SDS011;41826;53.246;-6.670;2022-11-22T04:58:54;10.80;;;6.88;;
55915;SDS011;41826;53.246;-6.670;2022-11-22T05:01:24;20.15;;;7.75;;
55915;SDS011;41826;53.246;-6.670;2022-11-22T05:03:50;11.45;;;6.35;;
55915;SDS011;41826;53.246;-6.670;2022-11-22T05:06:15;15.13;;;5.93;;
55915;SDS011;41826;53.246;-6.670;2022-11-22T05:08:40;10.95;;;6.68;;
55915;SDS011;41826;53.246;-6.670;2022-11-22T05:11:06;11.10;;;6.25;;
55915;SDS011;41826;53.246;-6.670;2022-11-22T05:13:33;10.05;;;5.88;;
55915;SDS011;41826;53.246;-6.670;2022-11-22T05:16:00;14.85;;;7.30;;
55915;SDS011;41826;53.246;-6.670;2022-11-22T05:18:27;6.88;;;5.10;;
55915;SDS011;41826;53.246;-6.670;2022-11-22T05:20:53;9.50;;;5.38;;
55915;SDS011;41826;53.246;-6.670;2022-11-22T05:23:19;10.18;;;5.10;;
55915;SDS011;41826;53.246;-6.670;2022-11-22T05:26:05;7.00;;;4.28;;
55915;SDS011;41826;53.246;-6.670;2022-11-22T05:28:32;9.95;;;5.53;;
55915;SDS011;41826;53.246;-6.670;2022-11-22T05:30:58;9.80;;;4.05;;
55915;SDS011;41826;53.246;-6.670;2022-11-22T05:33:30;8.98;;;4.63;;
55915;SDS011;41826;53.246;-6.670;2022-11-22T05:35:56;8.43;;;4.90;;
55915;SDS011;41826;53.246;-6.670;2022-11-22T05:38:24;4.05;;;3.47;;
55915;SDS011;41826;53.246;-6.670;2022-11-22T05:40:49;2.75;;;1.80;;
55915;SDS011;41826;53.246;-6.670;2022-11-22T05:43:15;2.10;;;1.33;;
55915;SDS011;41826;53.246;-6.670;2022-11-22T05:45:40;1.63;;;1.20;;
55915;SDS011;41826;53.246;-6.670;2022-11-22T05:48:05;5.72;;;2.70;;
55915;SDS011;41826;53.246;-6.670;2022-11-22T05:50:31;8.75;;;3.60;;
55915;SDS011;41826;53.246;-6.670;2022-11-22T05:52:59;7.00;;;3.45;;
55915;SDS011;41826;53.246;-6.670;2022-11-22T05:55:25;5.85;;;3.65;;
55915;SDS011;41826;53.246;-6.670;2022-11-22T05:57:51;6.45;;;3.50;;
55915;SDS011;41826;53.246;-6.670;2022-11-22T06:00:16;9.27;;;3.80;;
55915;SDS011;41826;53.246;-6.670;2022-11-22T06:02:42;11.27;;;4.25;;
55915;SDS011;41826;53.246;-6.670;2022-11-22T06:05:07;7.88;;;4.22;;
55915;SDS011;41826;53.246;-6.670;2022-11-22T06:07:33;9.63;;;4.70;;
55915;SDS011;41826;53.246;-6.670;2022-11-22T06:09:58;12.90;;;4.18;;
55915;SDS011;41826;53.246;-6.670;2022-11-22T06:12:24;9.63;;;4.88;;
55915;SDS011;41826;53.246;-6.670;2022-11-22T06:14:49;14.73;;;5.15;;
55915;SDS011;41826;53.246;-6.670;2022-11-22T06:17:14;15.23;;;4.68;;
55915;SDS011;41826;53.246;-6.670;2022-11-22T06:19:40;14.30;;;5.20;;
55915;SDS011;41826;53.246;-6.670;2022-11-22T06:22:06;14.88;;;5.63;;
55915;SDS011;41826;53.246;-6.670;2022-11-22T06:24:32;11.52;;;5.63;;
55915;SDS011;41826;53.246;-6.670;2022-11-22T06:26:58;11.00;;;4.05;;
55915;SDS011;41826;53.246;-6.670;2022-11-22T06:29:24;20.35;;;5.90;;
55915;SDS011;41826;53.246;-6.670;2022-11-22T06:31:50;12.82;;;6.05;;
55915;SDS011;41826;53.246;-6.670;2022-11-22T06:34:15;15.63;;;5.60;;
55915;SDS011;41826;53.246;-6.670;2022-11-22T06:36:40;7.55;;;4.18;;
55915;SDS011;41826;53.246;-6.670;2022-11-22T06:39:06;6.47;;;2.70;;
55915;SDS011;41826;53.246;-6.670;2022-11-22T06:41:33;4.38;;;2.33;;
55915;SDS011;41826;53.246;-6.670;2022-11-22T06:44:01;11.02;;;4.75;;
55915;SDS011;41826;53.246;-6.670;2022-11-22T06:46:29;18.38;;;6.43;;
55915;SDS011;41826;53.246;-6.670;2022-11-22T06:48:54;12.55;;;6.10;;
55915;SDS011;41826;53.246;-6.670;2022-11-22T06:51:29;8.63;;;3.95;;
55915;SDS011;41826;53.246;-6.670;2022-11-22T06:53:55;5.47;;;3.70;;
55915;SDS011;41826;53.246;-6.670;2022-11-22T06:56:28;2.22;;;2.00;;
55915;SDS011;41826;53.246;-6.670;2022-11-22T06:58:56;2.67;;;1.58;;
55915;SDS011;41826;53.246;-6.670;2022-11-22T07:01:23;2.03;;;1.38;;
55915;SDS011;41826;53.246;-6.670;2022-11-22T07:03:52;3.28;;;2.40;;
55915;SDS011;41826;53.246;-6.670;2022-11-22T07:06:22;3.65;;;2.58;;
55915;SDS011;41826;53.246;-6.670;2022-11-22T07:08:49;5.30;;;2.15;;
55915;SDS011;41826;53.246;-6.670;2022-11-22T07:11:21;2.70;;;2.50;;
55915;SDS011;41826;53.246;-6.670;2022-11-22T07:13:49;2.40;;;2.00;;
55915;SDS011;41826;53.246;-6.670;2022-11-22T07:16:16;2.88;;;1.83;;
55915;SDS011;41826;53.246;-6.670;2022-11-22T07:18:43;3.25;;;2.88;;
55915;SDS011;41826;53.246;-6.670;2022-11-22T07:21:19;2.83;;;1.90;;
55915;SDS011;41826;53.246;-6.670;2022-11-22T07:23:48;2.00;;;1.80;;
55915;SDS011;41826;53.246;-6.670;2022-11-22T07:26:15;10.88;;;2.58;;
55915;SDS011;41826;53.246;-6.670;2022-11-22T07:28:42;2.10;;;1.90;;
55915;SDS011;41826;53.246;-6.670;2022-11-22T07:31:08;2.47;;;1.80;;
55915;SDS011;41826;53.246;-6.670;2022-11-22T07:33:35;5.05;;;2.00;;
55915;SDS011;41826;53.246;-6.670;2022-11-22T07:36:05;2.30;;;1.65;;
55915;SDS011;41826;53.246;-6.670;2022-11-22T07:38:35;2.88;;;1.63;;
55915;SDS011;41826;53.246;-6.670;2022-11-22T07:41:00;2.55;;;2.03;;
55915;SDS011;41826;53.246;-6.670;2022-11-22T07:43:26;1.73;;;1.27;;
55915;SDS011;41826;53.246;-6.670;2022-11-22T07:45:52;1.05;;;1.02;;
55915;SDS011;41826;53.246;-6.670;2022-11-22T07:48:17;1.00;;;0.90;;
55915;SDS011;41826;53.246;-6.670;2022-11-22T07:50:42;1.13;;;1.02;;
55915;SDS011;41826;53.246;-6.670;2022-11-22T07:53:08;1.02;;;1.00;;
55915;SDS011;41826;53.246;-6.670;2022-11-22T07:55:34;1.30;;;0.85;;
55915;SDS011;41826;53.246;-6.670;2022-11-22T07:58:03;1.08;;;0.90;;
55915;SDS011;41826;53.246;-6.670;2022-11-22T08:00:28;1.15;;;0.98;;
55915;SDS011;41826;53.246;-6.670;2022-11-22T08:02:54;3.47;;;0.98;;
55915;SDS011;41826;53.246;-6.670;2022-11-22T08:05:19;1.55;;;1.27;;
55915;SDS011;41826;53.246;-6.670;2022-11-22T08:07:45;0.90;;;0.90;;
55915;SDS011;41826;53.246;-6.670;2022-11-22T08:10:12;1.08;;;0.90;;
55915;SDS011;41826;53.246;-6.670;2022-11-22T08:12:37;1.52;;;1.10;;
55915;SDS011;41826;53.246;-6.670;2022-11-22T08:15:03;1.25;;;1.15;;
55915;SDS011;41826;53.246;-6.670;2022-11-22T08:17:29;17.20;;;4.55;;
55915;SDS011;41826;53.246;-6.670;2022-11-22T08:19:54;9.88;;;4.10;;
55915;SDS011;41826;53.246;-6.670;2022-11-22T08:22:19;2.13;;;1.70;;
55915;SDS011;41826;53.246;-6.670;2022-11-22T08:24:45;3.28;;;2.15;;
55915;SDS011;41826;53.246;-6.670;2022-11-22T08:27:10;6.80;;;3.40;;
55915;SDS011;41826;53.246;-6.670;2022-11-22T08:29:35;1.88;;;1.73;;
55915;SDS011;41826;53.246;-6.670;2022-11-22T08:32:01;4.95;;;2.22;;
55915;SDS011;41826;53.246;-6.670;2022-11-22T08:34:27;36.30;;;4.80;;
55915;SDS011;41826;53.246;-6.670;2022-11-22T08:36:52;1.55;;;1.42;;
55915;SDS011;41826;53.246;-6.670;2022-11-22T08:39:18;2.55;;;1.83;;
55915;SDS011;41826;53.246;-6.670;2022-11-22T08:41:43;13.20;;;2.67;;
55915;SDS011;41826;53.246;-6.670;2022-11-22T08:44:08;27.73;;;3.90;;
55915;SDS011;41826;53.246;-6.670;2022-11-22T08:46:34;14.73;;;3.53;;
55915;SDS011;41826;53.246;-6.670;2022-11-22T08:48:59;4.20;;;0.90;;
55915;SDS011;41826;53.246;-6.670;2022-11-22T08:51:27;1.55;;;1.42;;
55915;SDS011;41826;53.246;-6.670;2022-11-22T08:53:53;1.90;;;1.10;;
55915;SDS011;41826;53.246;-6.670;2022-11-22T08:56:18;1.02;;;0.90;;
55915;SDS011;41826;53.246;-6.670;2022-11-22T08:58:43;2.65;;;1.00;;
55915;SDS011;41826;53.246;-6.670;2022-11-22T09:01:13;13.70;;;2.75;;
55915;SDS011;41826;53.246;-6.670;2022-11-22T09:06:09;2.72;;;1.30;;
55915;SDS011;41826;53.246;-6.670;2022-11-22T09:08:36;2.95;;;1.40;;
55915;SDS011;41826;53.246;-6.670;2022-11-22T09:11:04;4.70;;;3.20;;
55915;SDS011;41826;53.246;-6.670;2022-11-22T09:13:31;34.22;;;4.35;;
55915;SDS011;41826;53.246;-6.670;2022-11-22T09:16:04;5.70;;;3.55;;
55915;SDS011;41826;53.246;-6.670;2022-11-22T09:18:31;9.88;;;3.85;;
55915;SDS011;41826;53.246;-6.670;2022-11-22T09:21:01;13.32;;;5.47;;
55915;SDS011;41826;53.246;-6.670;2022-11-22T09:23:29;3.47;;;2.78;;
55915;SDS011;41826;53.246;-6.670;2022-11-22T09:25:59;14.02;;;4.85;;
55915;SDS011;41826;53.246;-6.670;2022-11-22T09:28:26;8.35;;;4.07;;
55915;SDS011;41826;53.246;-6.670;2022-11-22T09:31:05;22.92;;;5.80;;
55915;SDS011;41826;53.246;-6.670;2022-11-22T09:33:32;26.20;;;6.35;;
55915;SDS011;41826;53.246;-6.670;2022-11-22T09:36:02;8.32;;;4.35;;
55915;SDS011;41826;53.246;-6.670;2022-11-22T09:38:30;29.27;;;7.13;;
55915;SDS011;41826;53.246;-6.670;2022-11-22T09:40:56;3.15;;;1.80;;
55915;SDS011;41826;53.246;-6.670;2022-11-22T09:51:19;5.80;;;2.38;;
55915;SDS011;41826;53.246;-6.670;2022-11-22T09:53:54;17.48;;;4.78;;
55915;SDS011;41826;53.246;-6.670;2022-11-22T09:56:28;6.07;;;2.80;;
55915;SDS011;41826;53.246;-6.670;2022-11-22T09:59:10;3.28;;;1.70;;
55915;SDS011;41826;53.246;-6.670;2022-11-22T10:01:47;3.47;;;1.70;;
55915;SDS011;41826;53.246;-6.670;2022-11-22T10:06:52;4.90;;;2.30;;
55915;SDS011;41826;53.246;-6.670;2022-11-22T10:09:38;8.55;;;4.35;;
55915;SDS011;41826;53.246;-6.670;2022-11-22T10:12:23;2.60;;;1.90;;
55915;SDS011;41826;53.246;-6.670;2022-11-22T10:20:40;10.23;;;4.40;;
55915;SDS011;41826;53.246;-6.670;2022-11-22T10:23:14;20.50;;;6.32;;
55915;SDS011;41826;53.246;-6.670;2022-11-22T10:25:46;5.78;;;2.53;;
55915;SDS011;41826;53.246;-6.670;2022-11-22T10:28:26;8.63;;;4.32;;
55915;SDS011;41826;53.246;-6.670;2022-11-22T10:31:20;11.90;;;6.03;;
55915;SDS011;41826;53.246;-6.670;2022-11-22T10:39:54;19.77;;;5.65;;
55915;SDS011;41826;53.246;-6.670;2022-11-22T10:48:00;7.45;;;3.88;;
55915;SDS011;41826;53.246;-6.670;2022-11-22T10:56:21;9.88;;;3.78;;
55915;SDS011;41826;53.246;-6.670;2022-11-22T11:04:48;6.05;;;4.10;;
55915;SDS011;41826;53.246;-6.670;2022-11-22T11:07:16;13.35;;;7.07;;
55915;SDS011;41826;53.246;-6.670;2022-11-22T11:09:47;6.40;;;3.50;;
55915;SDS011;41826;53.246;-6.670;2022-11-22T11:12:21;22.67;;;4.97;;
55915;SDS011;41826;53.246;-6.670;2022-11-22T11:14:54;12.07;;;4.40;;
55915;SDS011;41826;53.246;-6.670;2022-11-22T11:17:31;14.38;;;6.82;;
55915;SDS011;41826;53.246;-6.670;2022-11-22T11:20:02;7.30;;;3.63;;
55915;SDS011;41826;53.246;-6.670;2022-11-22T11:22:35;18.77;;;6.82;;
55915;SDS011;41826;53.246;-6.670;2022-11-22T11:27:50;20.25;;;7.32;;
55915;SDS011;41826;53.246;-6.670;2022-11-22T11:30:15;15.38;;;6.90;;
55915;SDS011;41826;53.246;-6.670;2022-11-22T11:32:49;16.52;;;7.40;;
55915;SDS011;41826;53.246;-6.670;2022-11-22T11:35:16;5.75;;;4.10;;
55915;SDS011;41826;53.246;-6.670;2022-11-22T11:37:43;12.23;;;5.68;;
55915;SDS011;41826;53.246;-6.670;2022-11-22T11:40:28;16.50;;;8.20;;
55915;SDS011;41826;53.246;-6.670;2022-11-22T11:45:42;11.10;;;5.15;;
55915;SDS011;41826;53.246;-6.670;2022-11-22T11:48:27;13.07;;;6.95;;
55915;SDS011;41826;53.246;-6.670;2022-11-22T11:51:04;12.48;;;7.32;;
55915;SDS011;41826;53.246;-6.670;2022-11-22T11:53:31;24.65;;;10.25;;
55915;SDS011;41826;53.246;-6.670;2022-11-22T11:56:16;16.67;;;7.80;;
55915;SDS011;41826;53.246;-6.670;2022-11-22T11:59:06;15.70;;;8.05;;
55915;SDS011;41826;53.246;-6.670;2022-11-22T12:01:37;24.50;;;9.70;;
55915;SDS011;41826;53.246;-6.670;2022-11-22T12:04:15;23.58;;;9.90;;
55915;SDS011;41826;53.246;-6.670;2022-11-22T12:06:54;20.92;;;10.43;;
55915;SDS011;41826;53.246;-6.670;2022-11-22T12:09:32;16.77;;;7.22;;
55915;SDS011;41826;53.246;-6.670;2022-11-22T12:12:15;22.23;;;11.95;;
55915;SDS011;41826;53.246;-6.670;2022-11-22T12:14:42;16.13;;;9.20;;
55915;SDS011;41826;53.246;-6.670;2022-11-22T12:19:49;27.17;;;14.27;;
55915;SDS011;41826;53.246;-6.670;2022-11-22T12:22:44;25.00;;;12.68;;
55915;SDS011;41826;53.246;-6.670;2022-11-22T12:25:42;36.42;;;16.80;;
55915;SDS011;41826;53.246;-6.670;2022-11-22T12:28:19;40.05;;;17.45;;
55915;SDS011;41826;53.246;-6.670;2022-11-22T12:30:50;27.77;;;13.65;;
55915;SDS011;41826;53.246;-6.670;2022-11-22T12:33:41;21.65;;;10.18;;
55915;SDS011;41826;53.246;-6.670;2022-11-22T12:36:15;12.82;;;7.18;;
55915;SDS011;41826;53.246;-6.670;2022-11-22T12:39:02;10.13;;;5.82;;
55915;SDS011;41826;53.246;-6.670;2022-11-22T12:41:30;27.38;;;13.32;;
55915;SDS011;41826;53.246;-6.670;2022-11-22T12:43:59;24.45;;;13.75;;
55915;SDS011;41826;53.246;-6.670;2022-11-22T12:46:39;17.65;;;10.13;;
55915;SDS011;41826;53.246;-6.670;2022-11-22T12:52:16;17.25;;;7.45;;
55915;SDS011;41826;53.246;-6.670;2022-11-22T12:58:15;15.70;;;8.55;;
55915;SDS011;41826;53.246;-6.670;2022-11-22T13:00:18;8.85;;;4.85;;
55915;SDS011;41826;53.246;-6.670;2022-11-22T13:05:17;14.60;;;8.23;;
55915;SDS011;41826;53.246;-6.670;2022-11-22T13:13:31;21.67;;;11.15;;
55915;SDS011;41826;53.246;-6.670;2022-11-22T13:16:01;21.27;;;10.85;;
55915;SDS011;41826;53.246;-6.670;2022-11-22T13:18:31;11.80;;;5.90;;
55915;SDS011;41826;53.246;-6.670;2022-11-22T13:21:04;8.43;;;4.35;;
55915;SDS011;41826;53.246;-6.670;2022-11-22T13:23:55;16.45;;;8.10;;
55915;SDS011;41826;53.246;-6.670;2022-11-22T13:26:33;3.28;;;2.28;;
55915;SDS011;41826;53.246;-6.670;2022-11-22T13:29:09;10.15;;;6.00;;
55915;SDS011;41826;53.246;-6.670;2022-11-22T13:32:02;3.35;;;2.35;;
55915;SDS011;41826;53.246;-6.670;2022-11-22T13:34:28;13.18;;;5.55;;
55915;SDS011;41826;53.246;-6.670;2022-11-22T13:36:58;10.48;;;5.10;;
55915;SDS011;41826;53.246;-6.670;2022-11-22T13:39:29;11.75;;;5.10;;
55915;SDS011;41826;53.246;-6.670;2022-11-22T13:51:55;16.60;;;5.95;;
55915;SDS011;41826;53.246;-6.670;2022-11-22T14:02:44;65.90;;;26.52;;
55915;SDS011;41826;53.246;-6.670;2022-11-22T14:05:23;68.28;;;27.17;;
55915;SDS011;41826;53.246;-6.670;2022-11-22T14:07:49;38.40;;;18.02;;
55915;SDS011;41826;53.246;-6.670;2022-11-22T14:10:24;76.70;;;31.13;;
55915;SDS011;41826;53.246;-6.670;2022-11-22T14:21:21;34.55;;;14.35;;
55915;SDS011;41826;53.246;-6.670;2022-11-22T14:31:59;26.65;;;13.65;;
55915;SDS011;41826;53.246;-6.670;2022-11-22T14:34:28;10.90;;;5.93;;
55915;SDS011;41826;53.246;-6.670;2022-11-22T14:45:26;6.82;;;3.03;;
55915;SDS011;41826;53.246;-6.670;2022-11-22T14:48:02;6.03;;;3.65;;
55915;SDS011;41826;53.246;-6.670;2022-11-22T14:56:20;7.03;;;3.03;;
55915;SDS011;41826;53.246;-6.670;2022-11-22T14:58:55;4.18;;;2.60;;
55915;SDS011;41826;53.246;-6.670;2022-11-22T15:04:16;9.82;;;5.80;;
55915;SDS011;41826;53.246;-6.670;2022-11-22T15:10:02;13.43;;;4.90;;
55915;SDS011;41826;53.246;-6.670;2022-11-22T15:18:06;8.65;;;5.35;;
55915;SDS011;41826;53.246;-6.670;2022-11-22T15:20:45;5.57;;;3.63;;
55915;SDS011;41826;53.246;-6.670;2022-11-22T15:23:18;9.40;;;4.18;;
55915;SDS011;41826;53.246;-6.670;2022-11-22T15:25:49;8.52;;;5.10;;
55915;SDS011;41826;53.246;-6.670;2022-11-22T15:28:24;13.35;;;6.65;;
55915;SDS011;41826;53.246;-6.670;2022-11-22T15:30:50;11.60;;;6.45;;
55915;SDS011;41826;53.246;-6.670;2022-11-22T15:33:20;10.02;;;4.93;;
55915;SDS011;41826;53.246;-6.670;2022-11-22T15:38:36;8.40;;;4.90;;
55915;SDS011;41826;53.246;-6.670;2022-11-22T15:41:10;10.00;;;5.35;;
55915;SDS011;41826;53.246;-6.670;2022-11-22T15:43:38;8.60;;;4.53;;
55915;SDS011;41826;53.246;-6.670;2022-11-22T15:46:03;8.77;;;5.30;;
55915;SDS011;41826;53.246;-6.670;2022-11-22T15:48:31;6.65;;;4.65;;
55915;SDS011;41826;53.246;-6.670;2022-11-22T16:01:55;9.40;;;5.32;;
55915;SDS011;41826;53.246;-6.670;2022-11-22T16:06:55;8.90;;;5.00;;
55915;SDS011;41826;53.246;-6.670;2022-11-22T16:11:54;7.63;;;4.95;;
55915;SDS011;41826;53.246;-6.670;2022-11-22T16:14:45;14.45;;;6.13;;
55915;SDS011;41826;53.246;-6.670;2022-11-22T16:17:28;8.73;;;5.60;;
55915;SDS011;41826;53.246;-6.670;2022-11-22T16:23:01;4.78;;;3.97;;
55915;SDS011;41826;53.246;-6.670;2022-11-22T16:25:29;11.15;;;5.88;;
55915;SDS011;41826;53.246;-6.670;2022-11-22T16:27:57;9.65;;;5.88;;
55915;SDS011;41826;53.246;-6.670;2022-11-22T16:30:25;4.00;;;3.22;;
55915;SDS011;41826;53.246;-6.670;2022-11-22T16:32:50;8.00;;;5.65;;
55915;SDS011;41826;53.246;-6.670;2022-11-22T16:35:19;4.05;;;2.92;;
55915;SDS011;41826;53.246;-6.670;2022-11-22T16:37:46;7.18;;;5.18;;
55915;SDS011;41826;53.246;-6.670;2022-11-22T16:40:12;4.50;;;2.35;;
55915;SDS011;41826;53.246;-6.670;2022-11-22T16:42:40;8.68;;;5.35;;
55915;SDS011;41826;53.246;-6.670;2022-11-22T16:45:14;5.38;;;4.18;;
55915;SDS011;41826;53.246;-6.670;2022-11-22T16:47:41;6.70;;;3.65;;
55915;SDS011;41826;53.246;-6.670;2022-11-22T16:50:11;3.88;;;2.65;;
55915;SDS011;41826;53.246;-6.670;2022-11-22T16:52:38;8.00;;;5.07;;
55915;SDS011;41826;53.246;-6.670;2022-11-22T16:55:04;7.47;;;5.40;;
55915;SDS011;41826;53.246;-6.670;2022-11-22T16:57:31;8.02;;;5.25;;
55915;SDS011;41826;53.246;-6.670;2022-11-22T16:59:56;8.63;;;5.72;;
55915;SDS011;41826;53.246;-6.670;2022-11-22T17:02:21;8.45;;;5.97;;
55915;SDS011;41826;53.246;-6.670;2022-11-22T17:04:47;9.05;;;6.47;;
55915;SDS011;41826;53.246;-6.670;2022-11-22T17:07:13;9.68;;;6.22;;
55915;SDS011;41826;53.246;-6.670;2022-11-22T17:09:39;8.93;;;6.32;;
55915;SDS011;41826;53.246;-6.670;2022-11-22T17:12:10;9.80;;;6.40;;
55915;SDS011;41826;53.246;-6.670;2022-11-22T17:14:38;11.82;;;7.72;;
55915;SDS011;41826;53.246;-6.670;2022-11-22T17:17:03;14.10;;;9.60;;
55915;SDS011;41826;53.246;-6.670;2022-11-22T17:19:29;15.00;;;9.30;;
55915;SDS011;41826;53.246;-6.670;2022-11-22T17:21:54;7.22;;;5.88;;
55915;SDS011;41826;53.246;-6.670;2022-11-22T17:24:20;10.32;;;5.93;;